Time;durP1;ratioP1;P1;durP2;ratioP2;P2;SDS_P1;SDS_P2;PMS_P1;PMS_P2;Temp;Humidity;BMP_temperature;BMP_pressure;BME280_temperature;BME280_humidity;BME280_pressure;Samples;Min_cycle;Max_cycle;Signal;HPM_P1;HPM_P2
2023/12/10 00:02:03;;;;;;;9.93;4.50;;;;;;;2.56;92.53;94561.66;5011953;28;20573;-76
2023/12/10 00:04:30;;;;;;;0.38;0.38;;;;;;;2.53;92.97;94564.06;5012207;28;20567;-74
2023/12/10 00:06:57;;;;;;;1.17;1.00;;;;;;;2.48;93.36;94551.53;5011912;28;20205;-75
2023/12/10 00:09:24;;;;;;;6.82;3.03;;;;;;;2.54;93.52;94550.44;5011363;28;20217;-75
2023/12/10 00:11:52;;;;;;;6.85;3.72;;;;;;;2.74;93.43;94560.94;5011727;28;20236;-73
2023/12/10 00:14:18;;;;;;;5.88;3.45;;;;;;;2.69;93.00;94553.00;5010780;28;20213;-74
2023/12/10 00:16:45;;;;;;;10.45;4.43;;;;;;;2.63;93.48;94551.41;5011424;28;20659;-73
2023/12/10 00:19:12;;;;;;;6.43;3.30;;;;;;;2.63;92.90;94554.09;5011007;28;20601;-73
2023/12/10 00:21:39;;;;;;;5.28;3.42;;;;;;;2.88;92.53;94561.09;5011148;28;20295;-72
2023/12/10 00:24:07;;;;;;;6.07;3.40;;;;;;;3.09;92.59;94559.06;5011061;28;20205;-74
2023/12/10 00:26:34;;;;;;;6.63;3.42;;;;;;;2.87;92.13;94561.41;5011612;28;20629;-75
2023/12/10 00:29:02;;;;;;;9.95;3.55;;;;;;;3.12;92.14;94561.19;5011752;28;20540;-74
2023/12/10 00:31:29;;;;;;;7.65;4.05;;;;;;;3.24;91.88;94558.91;5011387;28;20541;-74
2023/12/10 00:33:56;;;;;;;0.20;0.20;;;;;;;3.20;90.46;94547.97;5020683;28;20214;-74
2023/12/10 00:36:23;;;;;;;0.20;0.20;;;;;;;3.21;91.27;94548.78;5030546;28;20575;-74
2023/12/10 00:38:50;;;;;;;0.77;0.40;;;;;;;3.51;90.96;94556.47;5030692;28;20207;-73
2023/12/10 00:41:17;;;;;;;1.42;1.25;;;;;;;3.73;90.13;94549.78;5013473;28;20223;-74
2023/12/10 00:43:44;;;;;;;0.65;0.65;;;;;;;3.42;88.63;94547.47;5011128;28;20217;-75
2023/12/10 00:46:12;;;;;;;0.60;0.60;;;;;;;3.10;90.15;94537.38;5010395;28;20217;-75
2023/12/10 00:48:40;;;;;;;0.20;0.20;;;;;;;2.92;90.90;94539.94;5010920;28;20220;-75
2023/12/10 00:51:06;;;;;;;2.33;0.93;;;;;;;3.27;90.34;94553.00;5023694;28;20232;-75
2023/12/10 00:53:33;;;;;;;0.40;0.40;;;;;;;3.06;90.24;94551.59;5010805;28;20275;-77
2023/12/10 00:56:00;;;;;;;0.30;0.30;;;;;;;2.91;90.83;94563.22;5024144;28;20228;-75
2023/12/10 00:58:27;;;;;;;0.25;0.25;;;;;;;2.89;90.77;94551.19;5021327;28;20295;-74
2023/12/10 01:00:54;;;;;;;0.55;0.55;;;;;;;2.79;91.57;94552.09;5012914;28;20205;-74
2023/12/10 01:03:22;;;;;;;11.35;4.80;;;;;;;2.79;92.58;94558.25;5010658;28;20631;-73
2023/12/10 01:05:49;;;;;;;7.07;3.97;;;;;;;2.71;92.25;94545.50;5023777;28;20209;-81
2023/12/10 01:08:16;;;;;;;6.97;4.22;;;;;;;2.72;92.26;94539.06;5010768;28;20220;-81
2023/12/10 01:10:43;;;;;;;0.30;0.30;;;;;;;2.87;92.30;94540.00;5010341;28;20209;-79
2023/12/10 01:13:10;;;;;;;0.20;0.20;;;;;;;2.74;92.35;94539.56;5010592;28;20217;-79
2023/12/10 01:15:37;;;;;;;0.20;0.20;;;;;;;2.81;92.11;94529.34;5010511;28;20237;-79
2023/12/10 01:18:04;;;;;;;0.25;0.25;;;;;;;2.63;92.25;94548.75;5010726;28;20209;-80
2023/12/10 01:20:34;;;;;;;0.20;0.20;;;;;;;2.53;92.77;94535.47;5009869;28;20267;-80
2023/12/10 01:23:04;;;;;;;0.82;0.82;;;;;;;2.29;93.55;94521.22;5010544;28;20212;-80
2023/12/10 01:25:31;;;;;;;0.25;0.25;;;;;;;2.36;93.64;94527.84;5010551;28;20205;-82
2023/12/10 01:27:57;;;;;;;0.45;0.45;;;;;;;2.25;94.21;94520.16;5010803;28;20227;-79
2023/12/10 01:30:24;;;;;;;0.75;0.75;;;;;;;2.34;94.06;94526.50;5016685;28;20219;-80
2023/12/10 01:32:52;;;;;;;0.30;0.30;;;;;;;2.42;93.91;94523.25;5030073;28;20635;-81
2023/12/10 01:35:20;;;;;;;0.50;0.50;;;;;;;2.18;94.11;94522.38;5029938;28;20212;-78
2023/12/10 01:37:48;;;;;;;0.30;0.30;;;;;;;2.38;93.77;94511.53;5029759;28;20653;-80
2023/12/10 01:40:15;;;;;;;5.18;3.47;;;;;;;2.10;94.32;94510.38;5021511;28;20220;-81
2023/12/10 01:42:44;;;;;;;9.82;5.15;;;;;;;2.08;94.56;94499.97;5010353;28;20217;-80
2023/12/10 01:45:11;;;;;;;7.88;3.83;;;;;;;2.33;94.71;94503.53;5009774;28;20213;-79
2023/12/10 01:47:41;;;;;;;3.67;2.65;;;;;;;2.44;94.18;94505.06;5012066;28;20211;-80
2023/12/10 01:50:11;;;;;;;8.02;3.33;;;;;;;2.35;94.58;94504.06;5019680;28;20200;-79
2023/12/10 01:52:39;;;;;;;9.90;4.15;;;;;;;2.38;94.20;94493.63;5011092;28;20331;-75
2023/12/10 01:55:09;;;;;;;8.82;3.92;;;;;;;2.30;94.27;94512.13;5023658;28;20259;-77
2023/12/10 01:57:37;;;;;;;7.97;4.20;;;;;;;2.75;93.53;94514.41;5017327;28;20245;-76
2023/12/10 02:00:06;;;;;;;5.50;2.67;;;;;;;2.71;92.54;94526.78;5013891;28;20213;-76
2023/12/10 02:02:33;;;;;;;7.90;4.40;;;;;;;2.97;92.69;94515.84;5014302;28;20251;-77
2023/12/10 02:05:06;;;;;;;5.93;2.85;;;;;;;2.94;91.64;94519.06;5025026;28;20208;-75
2023/12/10 02:07:33;;;;;;;8.77;3.58;;;;;;;2.63;92.83;94521.22;5028226;28;20201;-74
2023/12/10 02:10:33;;;;;;;8.05;3.20;;;;;;;2.95;92.06;94512.63;5014462;28;20208;-76
2023/12/10 02:13:26;;;;;;;9.48;4.60;;;;;;;3.13;91.76;94510.06;5011679;28;20212;-76
2023/12/10 02:19:12;;;;;;;9.27;4.15;;;;;;;3.28;90.34;94509.06;5033125;28;20228;-76
2023/12/10 02:21:58;;;;;;;6.20;2.70;;;;;;;3.05;91.47;94502.63;5034368;28;20247;-77
2023/12/10 02:25:11;;;;;;;;;;;;;;;;;;;;;
2023/12/10 02:31:26;;;;;;;6.53;3.72;;;;;;;3.20;90.32;94499.00;5012597;28;20220;-76
2023/12/10 02:37:00;;;;;;;7.18;3.05;;;;;;;2.82;91.58;94498.84;5017906;28;20248;-76
2023/12/10 02:39:48;;;;;;;6.07;3.22;;;;;;;2.60;91.77;94492.38;5015105;28;20617;-76
2023/12/10 02:42:32;;;;;;;7.75;3.50;;;;;;;2.40;93.20;94501.34;5015591;28;20212;-77
2023/12/10 02:45:16;;;;;;;5.75;3.97;;;;;;;2.34;94.52;94489.09;5020490;28;20239;-77
2023/12/10 02:51:17;;;;;;;6.70;3.40;;;;;;;2.32;94.18;94486.72;4963594;28;20745;-76
2023/12/10 02:53:58;;;;;;;4.03;2.60;;;;;;;2.33;95.13;94490.16;5013534;28;20244;-75
2023/12/10 02:59:35;;;;;;;4.93;2.58;;;;;;;2.22;95.31;94494.81;5031919;28;20224;-76
2023/12/10 03:02:12;;;;;;;6.28;3.47;;;;;;;2.32;95.17;94508.09;5018237;28;20213;-76
2023/12/10 03:04:54;;;;;;;9.20;4.38;;;;;;;2.31;95.59;94500.38;5013042;28;20204;-75
2023/12/10 03:07:38;;;;;;;7.30;3.72;;;;;;;1.99;95.87;94495.50;5013459;28;20205;-76
2023/12/10 03:10:23;;;;;;;10.40;4.38;;;;;;;2.13;96.43;94486.59;5012292;28;20299;-77
2023/12/10 03:15:47;;;;;;;6.38;3.38;;;;;;;1.53;98.99;94474.38;5011920;28;20209;-76
2023/12/10 03:18:24;;;;;;;4.13;2.53;;;;;;;1.46;100.00;94481.91;5012966;28;20220;-74
2023/12/10 03:21:02;;;;;;;0.20;0.20;;;;;;;1.45;100.00;94479.50;5013073;28;20539;-75
2023/12/10 03:23:34;;;;;;;0.32;0.32;;;;;;;1.36;100.00;94477.44;5012446;28;20531;-74
2023/12/10 03:26:22;;;;;;;0.55;0.55;;;;;;;1.24;100.00;94447.56;5013292;28;20248;-74
2023/12/10 03:28:52;;;;;;;0.20;0.20;;;;;;;1.35;100.00;94454.47;5019273;28;20583;-77
2023/12/10 03:31:21;;;;;;;0.57;0.57;;;;;;;1.67;100.00;94494.06;5018769;28;20224;-74
2023/12/10 03:33:55;;;;;;;0.90;0.68;;;;;;;1.55;100.00;94490.13;5021491;28;20240;-76
2023/12/10 03:36:31;;;;;;;0.20;0.20;;;;;;;1.57;99.85;94477.31;5029360;28;20672;-75
2023/12/10 03:39:04;;;;;;;6.22;1.15;;;;;;;1.59;100.00;94488.53;5017350;28;20230;-76
2023/12/10 03:41:38;;;;;;;0.20;0.20;;;;;;;1.82;100.00;94484.38;5018623;28;20587;-75
2023/12/10 03:44:08;;;;;;;0.30;0.30;;;;;;;1.78;99.36;94484.94;5032231;28;20238;-73
2023/12/10 03:46:36;;;;;;;1.30;1.25;;;;;;;1.69;98.59;94477.78;5024928;28;20208;-74
2023/12/10 03:49:09;;;;;;;1.55;0.98;;;;;;;1.73;99.16;94492.19;5012228;28;20214;-73
2023/12/10 03:51:42;;;;;;;0.40;0.40;;;;;;;1.68;99.29;94484.19;5012425;28;20721;-75
2023/12/10 03:54:11;;;;;;;0.60;0.60;;;;;;;1.73;98.99;94489.50;5012037;28;20302;-73
2023/12/10 03:56:47;;;;;;;0.20;0.20;;;;;;;1.82;99.38;94477.16;5012130;28;20287;-73
2023/12/10 03:59:18;;;;;;;0.35;0.35;;;;;;;1.92;99.30;94482.44;5025668;28;20205;-75
2023/12/10 04:01:49;;;;;;;0.28;0.28;;;;;;;1.64;98.61;94483.16;5022932;28;20208;-75
2023/12/10 04:04:34;;;;;;;0.55;0.55;;;;;;;1.74;98.95;94486.56;5027590;28;20213;-76
2023/12/10 04:07:05;;;;;;;0.32;0.32;;;;;;;1.50;98.90;94477.63;5030604;28;20572;-75
2023/12/10 04:09:39;;;;;;;0.47;0.47;;;;;;;1.61;99.32;94486.38;5031453;28;20243;-74
2023/12/10 04:12:18;;;;;;;0.20;0.20;;;;;;;1.84;99.04;94498.25;5028932;28;20199;-74
2023/12/10 04:14:51;;;;;;;0.30;0.30;;;;;;;1.71;98.37;94475.63;5027852;28;20220;-76
2023/12/10 04:17:26;;;;;;;0.95;0.95;;;;;;;1.63;98.79;94482.38;5028364;28;20681;-74
2023/12/10 04:20:07;;;;;;;3.83;0.98;;;;;;;1.61;99.55;94479.16;5024187;28;20207;-75
2023/12/10 04:22:43;;;;;;;1.23;0.88;;;;;;;1.46;99.31;94459.75;5023924;28;20204;-75
2023/12/10 04:25:23;;;;;;;0.20;0.20;;;;;;;1.91;99.21;94491.56;5030362;28;20545;-74
2023/12/10 04:28:00;;;;;;;0.20;0.20;;;;;;;1.92;99.30;94495.78;5027442;28;20280;-77
2023/12/10 04:30:34;;;;;;;0.22;0.22;;;;;;;2.06;99.03;94502.13;5024722;28;20203;-74
2023/12/10 04:33:15;;;;;;;0.28;0.28;;;;;;;2.11;98.87;94498.63;5029887;28;20262;-75
2023/12/10 04:35:50;;;;;;;0.43;0.43;;;;;;;2.11;98.35;94478.06;5028035;28;20645;-75
2023/12/10 04:38:21;;;;;;;0.50;0.50;;;;;;;2.18;97.98;94460.91;5025302;28;20231;-74
2023/12/10 04:40:55;;;;;;;0.45;0.45;;;;;;;2.12;98.67;94489.53;5030657;28;20295;-75
2023/12/10 04:43:31;;;;;;;0.20;0.20;;;;;;;2.21;97.90;94492.41;5028922;28;20200;-75
2023/12/10 04:45:59;;;;;;;0.30;0.30;;;;;;;2.25;96.71;94488.09;5029639;28;20568;-75
2023/12/10 04:48:31;;;;;;;0.30;0.30;;;;;;;2.26;97.44;94484.34;5018847;28;20259;-75
2023/12/10 04:51:02;;;;;;;0.20;0.20;;;;;;;2.27;96.38;94493.97;5030222;28;20806;-76
2023/12/10 04:53:35;;;;;;;0.73;0.73;;;;;;;2.20;96.78;94480.13;5024410;28;20232;-76
2023/12/10 04:56:09;;;;;;;0.45;0.45;;;;;;;2.17;96.21;94492.19;5025607;28;20234;-75
2023/12/10 04:58:41;;;;;;;0.30;0.30;;;;;;;1.95;97.61;94484.56;5027795;28;20648;-75
2023/12/10 05:01:26;;;;;;;0.82;0.80;;;;;;;1.78;98.25;94497.47;5028795;28;20211;-76
2023/12/10 05:03:57;;;;;;;0.20;0.20;;;;;;;1.68;99.16;94502.88;5022517;28;20208;-75
2023/12/10 05:06:26;;;;;;;0.20;0.20;;;;;;;1.66;99.41;94503.16;5029778;28;20577;-75
2023/12/10 05:08:56;;;;;;;0.30;0.30;;;;;;;1.61;99.86;94510.41;5030476;28;20228;-75
2023/12/10 05:11:27;;;;;;;0.20;0.20;;;;;;;1.56;100.00;94497.06;5027196;28;20220;-77
2023/12/10 05:13:58;;;;;;;0.55;0.55;;;;;;;1.42;100.00;94491.53;5028310;28;20205;-75
2023/12/10 05:16:29;;;;;;;0.30;0.30;;;;;;;1.26;100.00;94493.44;5030532;28;20208;-75
2023/12/10 05:18:57;;;;;;;1.42;1.33;;;;;;;1.46;100.00;94491.78;5028751;28;20278;-75
2023/12/10 05:21:30;;;;;;;1.05;1.05;;;;;;;1.21;100.00;94492.69;5026903;28;20219;-78
2023/12/10 05:23:58;;;;;;;0.20;0.20;;;;;;;1.30;100.00;94499.84;5026197;28;20236;-78
2023/12/10 05:26:27;;;;;;;0.20;0.20;;;;;;;1.28;100.00;94507.31;5030135;28;20204;-77
2023/12/10 05:28:55;;;;;;;0.20;0.20;;;;;;;1.22;100.00;94503.09;5031886;28;20200;-78
2023/12/10 05:31:22;;;;;;;0.80;0.80;;;;;;;1.18;100.00;94506.56;5033174;28;20258;-78
2023/12/10 05:33:50;;;;;;;0.20;0.20;;;;;;;1.15;100.00;94513.25;5034173;28;20573;-78
2023/12/10 05:36:21;;;;;;;1.15;1.10;;;;;;;0.78;100.00;94483.47;5026793;28;20208;-79
2023/12/10 05:38:50;;;;;;;6.32;2.65;;;;;;;1.04;100.00;94485.00;5031999;28;20693;-77
2023/12/10 05:41:22;;;;;;;4.43;2.35;;;;;;;1.10;100.00;94494.56;5030597;28;20219;-78
2023/12/10 05:43:56;;;;;;;3.15;2.47;;;;;;;1.03;100.00;94483.41;5030302;28;20575;-78
2023/12/10 05:46:26;;;;;;;5.50;2.55;;;;;;;0.79;100.00;94493.88;5028767;28;20197;-74
2023/12/10 05:48:53;;;;;;;6.93;2.33;;;;;;;0.86;100.00;94493.56;5029766;28;20200;-76
2023/12/10 05:51:25;;;;;;;0.55;0.40;;;;;;;0.66;100.00;94479.22;5030293;28;20197;-75
2023/12/10 05:53:58;;;;;;;0.68;0.68;;;;;;;0.77;100.00;94489.88;5029288;28;20641;-74
2023/12/10 05:56:25;;;;;;;1.40;1.30;;;;;;;0.71;100.00;94487.19;5029851;28;20326;-75
2023/12/10 05:59:06;;;;;;;0.20;0.20;;;;;;;0.77;100.00;94481.88;5032292;28;20225;-75
2023/12/10 06:01:34;;;;;;;0.47;0.47;;;;;;;0.97;100.00;94489.81;5030481;28;20200;-75
2023/12/10 06:04:03;;;;;;;0.20;0.20;;;;;;;1.07;100.00;94484.47;5028302;28;20683;-76
2023/12/10 06:06:35;;;;;;;0.25;0.25;;;;;;;1.00;100.00;94492.75;5030277;28;20206;-74
2023/12/10 06:09:07;;;;;;;0.38;0.38;;;;;;;1.11;100.00;94492.69;5032199;28;20250;-76
2023/12/10 06:11:38;;;;;;;0.40;0.40;;;;;;;1.38;100.00;94485.94;5031126;28;20922;-75
2023/12/10 06:14:06;;;;;;;0.20;0.20;;;;;;;1.66;100.00;94483.66;5030724;28;20314;-76
2023/12/10 06:16:41;;;;;;;0.20;0.20;;;;;;;2.01;100.00;94498.69;5032523;28;20221;-75
2023/12/10 06:19:11;;;;;;;0.22;0.22;;;;;;;2.09;100.00;94487.41;5031841;28;20235;-76
2023/12/10 06:21:44;;;;;;;0.85;0.85;;;;;;;2.23;100.00;94485.72;5028757;28;20213;-77
2023/12/10 06:24:16;;;;;;;0.20;0.20;;;;;;;2.25;99.73;94482.75;5031608;28;20200;-78
2023/12/10 06:26:47;;;;;;;0.63;0.55;;;;;;;2.23;99.10;94490.25;5018729;28;20205;-75
2023/12/10 06:29:19;;;;;;;0.25;0.25;;;;;;;2.05;98.98;94489.06;5028550;28;20200;-78
2023/12/10 06:31:50;;;;;;;0.40;0.40;;;;;;;1.99;99.87;94479.47;5030786;28;20300;-76
2023/12/10 06:34:24;;;;;;;0.40;0.40;;;;;;;2.01;99.67;94472.78;5030645;28;20299;-75
2023/12/10 06:36:55;;;;;;;0.20;0.20;;;;;;;1.78;100.00;94482.25;5029455;28;20573;-75
2023/12/10 06:39:27;;;;;;;0.35;0.35;;;;;;;2.09;100.00;94496.22;5025803;28;20228;-77
2023/12/10 06:41:59;;;;;;;0.20;0.20;;;;;;;2.06;100.00;94504.78;5028148;28;20289;-75
2023/12/10 06:44:27;;;;;;;0.60;0.60;;;;;;;1.91;100.00;94510.25;5027298;28;20197;-76
2023/12/10 06:47:14;;;;;;;0.20;0.20;;;;;;;1.84;99.98;94504.41;5014308;28;20208;-79
2023/12/10 06:49:48;;;;;;;0.20;0.20;;;;;;;1.33;100.00;94509.97;5028207;28;20196;-82
2023/12/10 06:52:21;;;;;;;0.20;0.20;;;;;;;1.38;100.00;94517.16;5026240;28;20645;-77
2023/12/10 06:54:49;;;;;;;0.47;0.47;;;;;;;1.33;100.00;94525.19;5029787;28;20211;-76
2023/12/10 06:57:16;;;;;;;0.20;0.20;;;;;;;1.24;100.00;94532.13;5027830;28;20211;-79
2023/12/10 06:59:45;;;;;;;0.30;0.30;;;;;;;1.77;100.00;94522.59;5031548;28;20566;-78
2023/12/10 07:02:12;;;;;;;0.20;0.20;;;;;;;1.30;100.00;94523.06;5029386;28;20208;-77
2023/12/10 07:04:43;;;;;;;0.20;0.20;;;;;;;1.26;100.00;94530.81;5027856;28;20299;-83
2023/12/10 07:07:10;;;;;;;0.50;0.50;;;;;;;1.28;100.00;94523.34;5028397;28;20554;-80
2023/12/10 07:09:37;;;;;;;0.20;0.20;;;;;;;1.56;100.00;94531.78;5028116;28;20197;-80
2023/12/10 07:12:06;;;;;;;0.30;0.30;;;;;;;2.05;100.00;94529.91;5029876;28;20197;-80
2023/12/10 07:14:33;;;;;;;0.20;0.20;;;;;;;2.17;100.00;94537.59;5030344;28;20212;-81
2023/12/10 07:17:00;;;;;;;0.20;0.20;;;;;;;2.38;100.00;94535.56;5033599;28;20211;-82
2023/12/10 07:19:31;;;;;;;0.22;0.22;;;;;;;2.40;100.00;94534.22;5040908;28;20231;-83
2023/12/10 07:22:00;;;;;;;0.32;0.32;;;;;;;2.46;99.88;94535.78;5046687;28;20200;-81
2023/12/10 07:24:27;;;;;;;0.65;0.65;;;;;;;2.76;99.49;94541.97;5040242;28;20744;-83
2023/12/10 07:26:54;;;;;;;0.32;0.32;;;;;;;2.90;98.14;94523.38;5036677;28;20227;-83
2023/12/10 07:29:23;;;;;;;0.50;0.50;;;;;;;2.85;97.10;94518.91;5039027;28;20196;-82
2023/12/10 07:31:54;;;;;;;3.03;0.98;;;;;;;2.63;97.85;94538.06;5036302;28;20211;-82
2023/12/10 07:34:21;;;;;;;0.20;0.20;;;;;;;3.01;97.90;94527.53;5036321;28;20219;-80
2023/12/10 07:36:51;;;;;;;0.10;0.10;;;;;;;3.04;95.83;94524.31;5024239;28;20203;-85
2023/12/10 07:39:19;;;;;;;0.30;0.30;;;;;;;3.05;96.19;94531.25;5038779;28;20219;-82
2023/12/10 07:41:49;;;;;;;0.20;0.20;;;;;;;2.70;96.32;94527.84;5034405;28;20208;-79
2023/12/10 07:44:16;;;;;;;0.63;0.63;;;;;;;3.03;96.50;94533.41;5036901;28;20197;-84
2023/12/10 07:46:44;;;;;;;1.75;0.90;;;;;;;3.11;94.84;94527.47;5034384;28;20204;-80
2023/12/10 07:49:11;;;;;;;0.20;0.20;;;;;;;3.13;94.60;94528.00;5035486;28;20255;-80
2023/12/10 07:51:40;;;;;;;0.30;0.30;;;;;;;2.84;94.05;94533.34;5033373;28;20211;-82
2023/12/10 07:54:07;;;;;;;0.63;0.63;;;;;;;2.90;94.72;94536.75;5033249;28;20245;-80
2023/12/10 07:56:39;;;;;;;1.60;1.23;;;;;;;3.10;93.87;94515.97;5030899;28;20560;-81
2023/12/10 07:59:06;;;;;;;0.30;0.30;;;;;;;3.52;93.99;94527.81;5038048;28;20574;-80
2023/12/10 08:01:37;;;;;;;0.40;0.40;;;;;;;3.79;91.99;94527.22;5038352;28;20318;-78
2023/12/10 08:04:06;;;;;;;0.22;0.22;;;;;;;3.55;91.03;94538.75;5032360;28;20209;-80
2023/12/10 08:06:35;;;;;;;0.30;0.30;;;;;;;3.97;89.77;94537.16;5037631;28;20519;-82
2023/12/10 08:09:08;;;;;;;0.57;0.57;;;;;;;4.23;89.49;94538.44;5037678;28;20208;-81
2023/12/10 08:11:36;;;;;;;3.80;1.17;;;;;;;3.59;89.93;94538.97;5043567;28;20297;-83
2023/12/10 08:14:06;;;;;;;0.25;0.25;;;;;;;3.11;91.31;94535.50;5027314;28;20200;-82
2023/12/10 08:16:35;;;;;;;0.55;0.55;;;;;;;3.41;91.48;94539.75;5038602;28;20204;-79
2023/12/10 08:19:03;;;;;;;0.20;0.20;;;;;;;3.84;90.40;94532.50;5037018;28;20307;-82
2023/12/10 08:21:31;;;;;;;0.65;0.65;;;;;;;3.49;90.23;94539.91;5030640;28;20208;-82
2023/12/10 08:24:01;;;;;;;0.47;0.47;;;;;;;3.53;91.09;94530.22;5023153;28;20213;-79
2023/12/10 08:26:28;;;;;;;0.30;0.30;;;;;;;3.76;90.71;94538.50;5032433;28;20295;-81
2023/12/10 08:28:55;;;;;;;2.13;1.38;;;;;;;3.53;90.32;94542.81;5040152;28;20196;-81
2023/12/10 08:31:27;;;;;;;4.47;3.70;;;;;;;3.20;91.12;94541.81;5035540;28;20210;-80
2023/12/10 08:33:54;;;;;;;0.20;0.20;;;;;;;3.48;91.77;94532.94;5037858;28;20203;-78
2023/12/10 08:36:21;;;;;;;0.28;0.28;;;;;;;4.04;91.44;94528.78;5021448;28;20208;-80
2023/12/10 08:39:01;;;;;;;0.95;0.95;;;;;;;4.24;88.75;94523.91;5029406;28;20231;-76
2023/12/10 08:41:28;;;;;;;0.43;0.43;;;;;;;4.35;88.18;94518.44;5040805;28;20200;-78
2023/12/10 08:43:58;;;;;;;0.43;0.43;;;;;;;4.07;89.26;94510.25;5006258;28;20664;-79
2023/12/10 08:46:25;;;;;;;0.30;0.30;;;;;;;4.57;88.26;94507.88;5030649;28;20246;-77
2023/12/10 08:48:52;;;;;;;0.40;0.40;;;;;;;3.99;88.06;94510.88;5027493;28;20203;-79
2023/12/10 08:51:19;;;;;;;0.20;0.20;;;;;;;3.74;89.75;94508.53;5039010;28;20246;-80
2023/12/10 08:53:47;;;;;;;0.57;0.57;;;;;;;3.69;90.46;94500.59;5036613;28;20610;-79
2023/12/10 08:56:18;;;;;;;0.40;0.40;;;;;;;3.94;90.44;94508.28;5038892;28;20207;-76
2023/12/10 08:58:45;;;;;;;0.20;0.20;;;;;;;3.78;89.77;94504.22;5045338;28;20247;-77
2023/12/10 09:01:11;;;;;;;0.20;0.20;;;;;;;3.76;90.57;94501.00;5040439;28;20218;-77
2023/12/10 09:03:42;;;;;;;0.30;0.30;;;;;;;4.01;90.32;94503.34;5039443;28;20208;-76
2023/12/10 09:06:10;;;;;;;0.25;0.25;;;;;;;4.48;88.68;94497.03;5043392;28;20613;-77
2023/12/10 09:08:37;;;;;;;2.38;0.52;;;;;;;4.59;86.96;94492.28;5038295;28;20196;-77
2023/12/10 09:11:04;;;;;;;0.20;0.20;;;;;;;4.51;86.55;94495.66;5042851;28;20203;-77
2023/12/10 09:13:38;;;;;;;0.50;0.50;;;;;;;4.63;86.05;94482.59;5042524;28;20199;-79
2023/12/10 09:16:07;;;;;;;0.93;0.93;;;;;;;4.81;85.38;94479.03;5042022;28;20633;-80
2023/12/10 09:18:36;;;;;;;2.35;1.00;;;;;;;4.59;86.47;94481.56;5033914;28;20221;-80
2023/12/10 09:21:07;;;;;;;0.95;0.95;;;;;;;4.28;86.71;94474.00;5041172;28;20200;-77
2023/12/10 09:23:34;;;;;;;0.35;0.35;;;;;;;4.69;86.33;94461.81;5034315;28;20207;-79
2023/12/10 09:26:08;;;;;;;0.50;0.50;;;;;;;4.78;85.91;94478.84;5036587;28;20204;-77
2023/12/10 09:28:35;;;;;;;0.77;0.77;;;;;;;4.85;85.52;94480.03;5037660;28;20283;-78
2023/12/10 09:31:04;;;;;;;0.20;0.20;;;;;;;5.46;82.79;94468.19;5034448;28;20564;-80
2023/12/10 09:33:33;;;;;;;1.25;1.20;;;;;;;5.64;80.77;94464.56;5035537;28;20204;-79
2023/12/10 09:36:00;;;;;;;4.63;1.50;;;;;;;5.62;81.12;94466.75;5039092;28;20204;-78
2023/12/10 09:38:27;;;;;;;0.55;0.55;;;;;;;5.23;82.97;94469.16;5037414;28;20231;-78
2023/12/10 09:40:57;;;;;;;0.30;0.30;;;;;;;5.33;82.41;94450.16;5037480;28;20226;-78
2023/12/10 09:43:24;;;;;;;0.30;0.30;;;;;;;5.82;81.30;94449.44;5037590;28;20250;-78
2023/12/10 09:45:51;;;;;;;0.25;0.25;;;;;;;6.17;80.49;94450.53;5036710;28;20231;-76
2023/12/10 09:48:19;;;;;;;0.32;0.32;;;;;;;6.24;79.26;94444.75;5036501;28;20267;-78
2023/12/10 09:50:46;;;;;;;0.40;0.40;;;;;;;5.89;79.87;94439.06;5038867;28;20211;-77
2023/12/10 09:53:13;;;;;;;0.50;0.50;;;;;;;5.81;80.18;94430.91;5033123;28;20236;-76
2023/12/10 09:55:41;;;;;;;1.38;0.50;;;;;;;5.67;80.60;94439.78;5036966;28;20223;-78
2023/12/10 09:58:08;;;;;;;0.47;0.35;;;;;;;5.61;82.13;94438.28;5040018;28;20303;-79
2023/12/10 10:00:34;;;;;;;1.98;1.08;;;;;;;5.66;81.37;94435.50;5036188;28;20541;-77
2023/12/10 10:03:02;;;;;;;0.28;0.28;;;;;;;5.85;81.23;94423.84;5038701;28;20204;-76
2023/12/10 10:05:30;;;;;;;0.30;0.30;;;;;;;5.54;82.69;94432.53;5035210;28;20197;-78
2023/12/10 10:08:00;;;;;;;0.30;0.30;;;;;;;5.64;82.66;94418.91;5028071;28;20196;-79
2023/12/10 10:10:27;;;;;;;1.80;1.20;;;;;;;5.62;81.56;94422.97;5014274;28;20201;-78
2023/12/10 10:12:55;;;;;;;0.70;0.70;;;;;;;5.86;81.83;94433.50;5020140;28;20215;-80
2023/12/10 10:15:27;;;;;;;1.65;1.27;;;;;;;5.96;81.52;94423.34;5023523;28;20233;-77
2023/12/10 10:17:55;;;;;;;2.30;2.15;;;;;;;5.59;83.09;94427.09;5024344;28;20207;-79
2023/12/10 10:20:23;;;;;;;0.77;0.77;;;;;;;5.57;82.69;94418.53;5032475;28;20228;-79
2023/12/10 10:22:52;;;;;;;3.85;1.55;;;;;;;5.09;84.06;94422.72;5033200;28;20255;-78
2023/12/10 10:25:21;;;;;;;0.40;0.40;;;;;;;4.81;85.54;94430.75;5027856;28;20213;-79
2023/12/10 10:27:49;;;;;;;0.30;0.30;;;;;;;4.73;86.67;94426.06;5025535;28;20208;-78
2023/12/10 10:30:17;;;;;;;0.52;0.52;;;;;;;5.08;86.47;94429.97;5014007;28;20201;-79
2023/12/10 10:32:45;;;;;;;0.22;0.22;;;;;;;5.35;84.40;94421.91;5012934;28;20216;-77
2023/12/10 10:35:12;;;;;;;0.55;0.55;;;;;;;5.55;82.05;94415.34;5032403;28;20205;-81
2023/12/10 10:37:40;;;;;;;1.73;1.25;;;;;;;5.15;82.42;94418.84;5031436;28;20680;-83
2023/12/10 10:40:09;;;;;;;0.63;0.60;;;;;;;5.18;84.05;94418.25;5024374;28;20229;-80
2023/12/10 10:42:38;;;;;;;0.95;0.68;;;;;;;5.16;83.03;94415.88;5013291;28;20221;-79
2023/12/10 10:45:06;;;;;;;0.30;0.30;;;;;;;5.31;83.50;94412.09;5013359;28;20331;-78
2023/12/10 10:47:35;;;;;;;0.30;0.30;;;;;;;5.31;82.93;94412.88;5013705;28;20219;-79
2023/12/10 10:50:04;;;;;;;0.30;0.30;;;;;;;5.22;83.63;94413.84;5022228;28;20208;-80
2023/12/10 10:52:34;;;;;;;0.77;0.77;;;;;;;5.12;83.66;94411.38;5030771;28;20259;-81
2023/12/10 10:55:02;;;;;;;0.43;0.43;;;;;;;5.20;83.86;94399.94;5013211;28;20212;-80
2023/12/10 10:57:31;;;;;;;0.75;0.75;;;;;;;5.52;83.13;94397.13;5012708;28;20240;-78
2023/12/10 10:59:58;;;;;;;0.30;0.30;;;;;;;6.21;84.24;94397.75;5013118;28;20235;-77
2023/12/10 11:02:25;;;;;;;0.95;0.40;;;;;;;6.03;80.63;94387.94;5028878;28;20255;-76
2023/12/10 11:04:52;;;;;;;0.50;0.50;;;;;;;5.72;80.58;94391.31;5022390;28;20217;-77
2023/12/10 11:07:21;;;;;;;1.35;0.85;;;;;;;5.11;82.73;94382.94;5017771;28;20295;-77
2023/12/10 11:09:59;;;;;;;0.38;0.38;;;;;;;5.35;82.52;94370.09;5023244;28;20646;-75
2023/12/10 11:12:48;;;;;;;5.05;1.30;;;;;;;5.68;82.33;94374.22;5012202;28;20209;-76
2023/12/10 11:15:26;;;;;;;0.47;0.47;;;;;;;5.62;81.25;94375.41;5006760;28;20217;-76
2023/12/10 11:17:54;;;;;;;0.50;0.50;;;;;;;5.41;81.41;94368.91;5024254;28;20253;-76
2023/12/10 11:20:32;;;;;;;0.30;0.30;;;;;;;5.81;80.44;94372.56;5018581;28;20243;-76
2023/12/10 11:22:59;;;;;;;0.20;0.20;;;;;;;6.16;79.62;94362.91;5020495;28;20296;-80
2023/12/10 11:25:31;;;;;;;0.50;0.50;;;;;;;6.15;79.31;94364.00;5017428;28;20204;-78
2023/12/10 11:28:05;;;;;;;0.22;0.22;;;;;;;6.10;78.79;94369.50;5032136;28;20235;-79
2023/12/10 11:30:33;;;;;;;0.40;0.40;;;;;;;6.11;79.03;94354.19;5025091;28;20205;-77
2023/12/10 11:33:00;;;;;;;0.50;0.50;;;;;;;6.30;79.18;94352.88;5014822;28;20215;-75
2023/12/10 11:35:27;;;;;;;0.32;0.32;;;;;;;6.52;78.82;94354.75;5031369;28;20218;-74
2023/12/10 11:37:54;;;;;;;0.25;0.25;;;;;;;6.50;79.33;94342.72;5031973;28;20218;-76
2023/12/10 11:40:21;;;;;;;1.15;1.15;;;;;;;6.60;79.05;94345.13;5022231;28;20228;-76
2023/12/10 11:42:48;;;;;;;0.32;0.32;;;;;;;6.72;76.98;94334.56;5025529;28;20295;-76
2023/12/10 11:45:18;;;;;;;0.30;0.30;;;;;;;6.71;76.24;94335.66;5011978;28;20201;-78
2023/12/10 11:47:47;;;;;;;0.38;0.38;;;;;;;6.45;78.56;94332.84;5012034;28;20213;-76
2023/12/10 11:50:16;;;;;;;0.65;0.65;;;;;;;6.69;77.70;94333.31;5021892;28;20568;-78
2023/12/10 11:52:43;;;;;;;0.80;0.80;;;;;;;6.76;77.02;94332.84;5018130;28;20248;-77
2023/12/10 11:55:10;;;;;;;0.93;0.90;;;;;;;6.32;77.84;94318.38;5020611;28;20213;-75
2023/12/10 11:57:42;;;;;;;0.57;0.57;;;;;;;6.50;78.76;94302.34;5011261;28;20248;-76
2023/12/10 12:00:11;;;;;;;1.60;1.50;;;;;;;6.67;77.80;94291.66;5011375;28;20287;-76
2023/12/10 12:02:44;;;;;;;0.40;0.40;;;;;;;6.48;78.04;94293.78;5010844;28;20221;-77
2023/12/10 12:05:11;;;;;;;0.20;0.20;;;;;;;6.55;77.75;94299.53;5011405;28;20209;-76
2023/12/10 12:07:39;;;;;;;0.47;0.47;;;;;;;6.63;77.49;94296.88;5023310;28;20227;-77
2023/12/10 12:10:07;;;;;;;0.88;0.88;;;;;;;6.50;76.86;94297.75;5036239;28;20207;-77
2023/12/10 12:12:38;;;;;;;0.20;0.20;;;;;;;6.45;77.84;94300.56;5032656;28;20208;-76
2023/12/10 12:15:06;;;;;;;0.50;0.50;;;;;;;6.63;79.21;94301.44;5030028;28;20197;-77
2023/12/10 12:17:33;;;;;;;1.55;0.75;;;;;;;6.63;77.27;94293.38;5010982;28;20224;-75